Time,TemperatureF,DewpointF,PressureIn,WindDirection,WindDirectionDegrees,WindSpeedMPH,WindSpeedGustMPH,Humidity,HourlyPrecipIn,Conditions,Clouds,dailyrainin,SolarRadiationWatts/m^2,SoftwareType,DateUTC
2013-04-14 00:05:00,32.9,32.0,29.86,SSE,157,0.0,0.0,95,0.00,,,0.00,0,weatherlink.com 1.10,2013-04-14 04:05:00,
2013-04-14 00:20:00,33.0,32.0,29.87,SSE,157,0.0,0.0,95,0.00,,,0.00,0,weatherlink.com 1.10,2013-04-14 04:20:00,
2013-04-14 00:35:00,33.0,32.0,29.87,SSE,157,0.0,0.0,95,0.00,,,0.00,0,weatherlink.com 1.10,2013-04-14 04:35:00,
2013-04-14 00:50:00,32.9,32.0,29.87,SSE,157,0.0,0.0,95,0.00,,,0.00,0,weatherlink.com 1.10,2013-04-14 04:50:00,
2013-04-14 01:05:00,33.0,32.0,29.88,SSE,157,0.0,2.0,95,0.00,,,0.00,0,weatherlink.com 1.10,2013-04-14 05:05:00,
2013-04-14 01:20:00,33.2,32.0,29.87,SSE,157,0.0,0.0,96,0.00,,,0.00,0,weatherlink.com 1.10,2013-04-14 05:20:00,
2013-04-14 01:35:00,33.2,32.0,29.87,SE,131,0.0,1.0,96,0.00,,,0.00,0,weatherlink.com 1.10,2013-04-14 05:35:00,
2013-04-14 01:50:00,33.1,32.0,29.87,SE,131,0.0,0.0,96,0.00,,,0.00,0,weatherlink.com 1.10,2013-04-14 05:50:00,
2013-04-14 02:05:00,33.1,32.0,29.87,SE,131,0.0,0.0,96,0.00,,,0.00,0,weatherlink.com 1.10,2013-04-14 06:05:00,
2013-04-14 02:20:00,33.2,32.0,29.87,SE,131,0.0,0.0,96,0.00,,,0.00,0,weatherlink.com 1.10,2013-04-14 06:20:00,
2013-04-14 02:35:00,33.1,32.0,29.86,SE,131,0.0,0.0,96,0.00,,,0.00,0,weatherlink.com 1.10,2013-04-14 06:35:00,
2013-04-14 02:50:00,33.1,32.0,29.86,SE,131,0.0,0.0,96,0.00,,,0.00,0,weatherlink.com 1.10,2013-04-14 06:50:00,
2013-04-14 03:05:00,33.4,32.0,29.87,SE,130,0.0,2.0,96,0.00,,,0.00,0,weatherlink.com 1.10,2013-04-14 07:05:00,
2013-04-14 03:20:00,33.4,32.0,29.86,ESE,113,0.0,0.0,96,0.00,,,0.00,0,weatherlink.com 1.10,2013-04-14 07:20:00,
2013-04-14 03:35:00,33.2,32.0,29.86,ESE,113,0.0,0.0,96,0.00,,,0.00,0,weatherlink.com 1.10,2013-04-14 07:35:00,
2013-04-14 03:50:00,33.2,32.0,29.86,ESE,113,0.0,0.0,96,0.00,,,0.00,0,weatherlink.com 1.10,2013-04-14 07:50:00,
2013-04-14 04:05:00,33.2,32.0,29.86,ESE,113,0.0,0.0,96,0.00,,,0.00,0,weatherlink.com 1.10,2013-04-14 08:05:00,
2013-04-14 04:20:00,33.1,32.0,29.86,ESE,113,0.0,0.0,96,0.00,,,0.00,0,weatherlink.com 1.10,2013-04-14 08:20:00,
2013-04-14 04:35:00,33.1,32.0,29.87,ESE,113,0.0,0.0,96,0.00,,,0.00,0,weatherlink.com 1.10,2013-04-14 08:35:00,
2013-04-14 04:50:00,33.1,32.0,29.87,ESE,113,0.0,0.0,96,0.00,,,0.00,0,weatherlink.com 1.10,2013-04-14 08:50:00,
2013-04-14 05:05:00,33.2,32.0,29.87,ESE,113,0.0,0.0,96,0.00,,,0.00,0,weatherlink.com 1.10,2013-04-14 09:05:00,
2013-04-14 05:20:00,33.3,32.0,29.87,ESE,113,0.0,1.0,96,0.00,,,0.00,0,weatherlink.com 1.10,2013-04-14 09:20:00,
2013-04-14 05:35:00,33.2,32.0,29.87,ESE,113,0.0,1.0,96,0.00,,,0.00,0,weatherlink.com 1.10,2013-04-14 09:35:00,
2013-04-14 05:50:00,33.1,32.0,29.88,ESE,113,0.0,0.0,96,0.00,,,0.00,0,weatherlink.com 1.10,2013-04-14 09:50:00,
2013-04-14 06:05:00,33.0,32.0,29.87,ESE,113,0.0,0.0,96,0.00,,,0.00,0,weatherlink.com 1.10,2013-04-14 10:05:00,
2013-04-14 06:20:00,33.0,32.0,29.88,ESE,113,0.0,0.0,96,0.00,,,0.00,0,weatherlink.com 1.10,2013-04-14 10:20:00,
2013-04-14 06:35:00,33.0,32.0,29.88,ESE,113,0.0,0.0,96,0.00,,,0.00,7,weatherlink.com 1.10,2013-04-14 10:35:00,
2013-04-14 06:50:00,33.1,32.0,29.89,ESE,113,0.0,0.0,96,0.00,,,0.00,19,weatherlink.com 1.10,2013-04-14 10:50:00,
2013-04-14 07:05:00,33.0,32.0,29.90,ESE,113,0.0,0.0,96,0.00,,,0.00,16,weatherlink.com 1.10,2013-04-14 11:05:00,
2013-04-14 07:20:00,33.1,32.0,29.90,ESE,113,0.0,0.0,96,0.00,,,0.00,32,weatherlink.com 1.10,2013-04-14 11:20:00,
2013-04-14 07:36:00,33.1,32.0,29.91,ESE,113,0.0,0.0,96,0.00,,,0.00,42,weatherlink.com 1.10,2013-04-14 11:36:00,
2013-04-14 07:51:00,33.4,32.0,29.91,ESE,113,0.0,1.0,96,0.00,,,0.00,69,weatherlink.com 1.10,2013-04-14 11:51:00,
2013-04-14 08:06:00,33.9,33.0,29.91,ESE,113,0.0,1.0,96,0.00,,,0.00,113,weatherlink.com 1.10,2013-04-14 12:06:00,
2013-04-14 08:21:00,34.7,34.0,29.91,ESE,113,2.0,3.0,96,0.00,,,0.00,93,weatherlink.com 1.10,2013-04-14 12:21:00,
2013-04-14 08:36:00,35.1,34.0,29.92,ESE,117,0.0,3.0,96,0.00,,,0.00,121,weatherlink.com 1.10,2013-04-14 12:36:00,
2013-04-14 08:51:00,35.6,35.0,29.93,NNE,14,0.0,2.0,96,0.00,,,0.00,139,weatherlink.com 1.10,2013-04-14 12:51:00,
2013-04-14 09:21:00,36.5,35.0,29.94,East,83,0.0,1.0,95,0.00,,,0.00,162,weatherlink.com 1.10,2013-04-14 13:21:00,
2013-04-14 09:36:00,36.9,35.0,29.94,WNW,290,2.0,3.0,93,0.00,,,0.00,91,weatherlink.com 1.10,2013-04-14 13:36:00,
2013-04-14 09:51:00,37.2,35.0,29.95,WNW,303,1.0,3.0,93,0.00,,,0.00,204,weatherlink.com 1.10,2013-04-14 13:51:00,
2013-04-14 10:06:00,38.6,36.0,29.95,West,269,2.0,4.0,89,0.00,,,0.00,339,weatherlink.com 1.10,2013-04-14 14:06:00,
2013-04-14 10:36:00,41.3,36.0,29.95,NW,304,1.0,4.0,82,0.00,,,0.00,490,weatherlink.com 1.10,2013-04-14 14:36:00,
2013-04-14 10:51:00,41.9,36.0,29.95,NNW,335,0.0,5.0,79,0.00,,,0.00,536,weatherlink.com 1.10,2013-04-14 14:51:00,
2013-04-14 11:21:00,43.8,35.0,29.96,WSW,252,0.0,5.0,71,0.00,,,0.00,652,weatherlink.com 1.10,2013-04-14 15:21:00,
2013-04-14 11:36:00,43.8,34.0,29.96,NNW,329,6.0,8.0,68,0.00,,,0.00,854,weatherlink.com 1.10,2013-04-14 15:36:00,
2013-04-14 11:51:00,43.4,33.0,29.96,WNW,303,0.0,7.0,67,0.00,,,0.00,512,weatherlink.com 1.10,2013-04-14 15:51:00,
2013-04-14 12:06:00,42.8,32.0,29.96,West,279,0.0,5.0,66,0.00,,,0.00,338,weatherlink.com 1.10,2013-04-14 16:06:00,
2013-04-14 12:21:00,42.3,33.0,29.96,WNW,299,0.0,4.0,70,0.00,,,0.00,237,weatherlink.com 1.10,2013-04-14 16:21:00,
2013-04-14 12:36:00,42.6,32.0,29.96,East,83,1.0,6.0,67,0.00,,,0.00,517,weatherlink.com 1.10,2013-04-14 16:36:00,
2013-04-14 12:52:00,42.9,32.0,29.96,NNE,19,0.0,7.0,66,0.00,,,0.00,288,weatherlink.com 1.10,2013-04-14 16:52:00,
2013-04-14 13:07:00,42.5,31.0,29.97,NNW,338,0.0,6.0,65,0.00,,,0.00,290,weatherlink.com 1.10,2013-04-14 17:07:00,
2013-04-14 13:22:00,43.1,32.0,29.97,WNW,284,1.0,5.0,64,0.00,,,0.00,218,weatherlink.com 1.10,2013-04-14 17:22:00,
2013-04-14 13:37:00,41.7,31.0,29.98,NW,314,3.0,7.0,67,0.00,,,0.00,100,weatherlink.com 1.10,2013-04-14 17:37:00,
2013-04-14 13:52:00,39.6,33.0,29.98,NNW,342,2.0,8.0,76,0.00,,,0.00,316,weatherlink.com 1.10,2013-04-14 17:52:00,
2013-04-14 14:07:00,41.8,33.0,29.98,NW,309,0.0,7.0,70,0.00,,,0.00,847,weatherlink.com 1.10,2013-04-14 18:07:00,
2013-04-14 14:22:00,42.8,31.0,29.98,SE,146,1.0,9.0,64,0.00,,,0.00,146,weatherlink.com 1.10,2013-04-14 18:22:00,
2013-04-14 14:37:00,43.6,31.0,29.99,NW,309,0.0,4.0,61,0.00,,,0.00,373,weatherlink.com 1.10,2013-04-14 18:37:00,
2013-04-14 14:52:00,43.2,31.0,30.00,NW,304,2.0,8.0,63,0.00,,,0.00,121,weatherlink.com 1.10,2013-04-14 18:52:00,
2013-04-14 15:07:00,41.9,32.0,30.00,SW,227,2.0,8.0,67,0.00,,,0.00,146,weatherlink.com 1.10,2013-04-14 19:07:00,
2013-04-14 15:22:00,41.2,32.0,30.01,West,276,1.0,5.0,70,0.00,,,0.00,360,weatherlink.com 1.10,2013-04-14 19:22:00,
2013-04-14 15:37:00,42.4,31.0,30.01,NW,306,0.0,6.0,64,0.00,,,0.00,246,weatherlink.com 1.10,2013-04-14 19:37:00,
2013-04-14 15:52:00,42.5,32.0,30.02,South,185,0.0,4.0,67,0.00,,,0.00,265,weatherlink.com 1.10,2013-04-14 19:52:00,
2013-04-14 16:07:00,42.8,32.0,30.02,SE,135,1.0,4.0,65,0.00,,,0.00,301,weatherlink.com 1.10,2013-04-14 20:07:00,
2013-04-14 16:22:00,42.5,31.0,30.03,NNW,327,0.0,4.0,64,0.00,,,0.00,134,weatherlink.com 1.10,2013-04-14 20:22:00,
2013-04-14 16:37:00,41.6,32.0,30.03,SW,223,0.0,6.0,68,0.00,,,0.00,244,weatherlink.com 1.10,2013-04-14 20:37:00,
2013-04-14 16:52:00,41.5,31.0,30.04,WSW,253,2.0,4.0,66,0.00,,,0.00,123,weatherlink.com 1.10,2013-04-14 20:52:00,
2013-04-14 17:07:00,40.8,31.0,30.05,West,273,0.0,3.0,69,0.00,,,0.00,35,weatherlink.com 1.10,2013-04-14 21:07:00,
2013-04-14 17:22:00,38.8,33.0,30.06,WNW,302,0.0,3.0,78,0.00,,,0.00,105,weatherlink.com 1.10,2013-04-14 21:22:00,
2013-04-14 17:37:00,38.2,32.0,30.07,North,360,0.0,3.0,78,0.00,,,0.00,120,weatherlink.com 1.10,2013-04-14 21:37:00,
2013-04-14 17:52:00,38.7,33.0,30.08,East,87,0.0,2.0,79,0.00,,,0.00,62,weatherlink.com 1.10,2013-04-14 21:52:00,
2013-04-14 18:07:00,38.7,31.0,30.08,ESE,111,1.0,3.0,74,0.00,,,0.00,21,weatherlink.com 1.10,2013-04-14 22:07:00,
2013-04-14 18:22:00,39.1,32.0,30.09,WNW,286,0.0,3.0,76,0.00,,,0.00,107,weatherlink.com 1.10,2013-04-14 22:22:00,
2013-04-14 18:37:00,38.9,32.0,30.10,NW,324,1.0,4.0,76,0.00,,,0.00,53,weatherlink.com 1.10,2013-04-14 22:37:00,
2013-04-14 18:52:00,38.6,32.0,30.10,NNW,330,0.0,1.0,77,0.00,,,0.00,39,weatherlink.com 1.10,2013-04-14 22:52:00,
2013-04-14 19:07:00,38.3,32.0,30.11,NNW,330,0.0,2.0,77,0.00,,,0.00,14,weatherlink.com 1.10,2013-04-14 23:07:00,
2013-04-14 19:22:00,37.9,31.0,30.11,WNW,291,0.0,0.0,76,0.00,,,0.00,7,weatherlink.com 1.10,2013-04-14 23:22:00,
2013-04-14 19:37:00,37.5,31.0,30.12,SSE,159,0.0,1.0,78,0.00,,,0.00,0,weatherlink.com 1.10,2013-04-14 23:37:00,
2013-04-14 19:52:00,37.3,32.0,30.12,SSE,159,0.0,2.0,80,0.00,,,0.00,0,weatherlink.com 1.10,2013-04-14 23:52:00,
2013-04-14 20:07:00,36.8,32.0,30.13,SSE,159,0.0,0.0,82,0.00,,,0.00,0,weatherlink.com 1.10,2013-04-15 00:07:00,
2013-04-14 20:22:00,36.5,32.0,30.14,SSE,159,0.0,0.0,83,0.00,,,0.00,0,weatherlink.com 1.10,2013-04-15 00:22:00,
2013-04-14 20:37:00,36.2,32.0,30.15,SSE,159,0.0,1.0,83,0.00,,,0.00,0,weatherlink.com 1.10,2013-04-15 00:37:00,
2013-04-14 20:53:00,36.3,32.0,30.16,SSE,159,0.0,1.0,83,0.00,,,0.00,0,weatherlink.com 1.10,2013-04-15 00:53:00,
2013-04-14 21:08:00,36.2,32.0,30.17,SSE,159,0.0,1.0,83,0.00,,,0.00,0,weatherlink.com 1.10,2013-04-15 01:08:00,
2013-04-14 21:23:00,36.1,31.0,30.17,SSE,159,0.0,1.0,83,0.00,,,0.00,0,weatherlink.com 1.10,2013-04-15 01:23:00,
2013-04-14 21:38:00,36.0,31.0,30.18,SSE,159,0.0,0.0,83,0.00,,,0.00,0,weatherlink.com 1.10,2013-04-15 01:38:00,
2013-04-14 21:53:00,35.3,31.0,30.18,South,180,0.0,2.0,83,0.00,,,0.00,0,weatherlink.com 1.10,2013-04-15 01:53:00,
2013-04-14 22:08:00,34.6,30.0,30.17,SW,230,0.0,1.0,83,0.00,,,0.00,0,weatherlink.com 1.10,2013-04-15 02:08:00,
2013-04-14 22:23:00,34.1,30.0,30.17,NW,309,0.0,2.0,83,0.00,,,0.00,0,weatherlink.com 1.10,2013-04-15 02:23:00,
2013-04-14 22:38:00,33.8,29.0,30.18,NW,312,0.0,2.0,83,0.00,,,0.00,0,weatherlink.com 1.10,2013-04-15 02:38:00,
2013-04-14 22:53:00,33.5,29.0,30.18,SE,139,0.0,2.0,84,0.00,,,0.00,0,weatherlink.com 1.10,2013-04-15 02:53:00,
2013-04-14 23:08:00,32.8,29.0,30.18,SE,139,3.0,3.0,84,0.00,,,0.00,0,weatherlink.com 1.10,2013-04-15 03:08:00,
2013-04-14 23:23:00,32.0,28.0,30.18,SE,139,0.0,0.0,85,0.00,,,0.00,0,weatherlink.com 1.10,2013-04-15 03:23:00,
2013-04-14 23:38:00,31.5,28.0,30.18,SE,139,0.0,0.0,87,0.00,,,0.00,0,weatherlink.com 1.10,2013-04-15 03:38:00,
2013-04-14 23:53:00,31.0,28.0,30.19,SE,139,0.0,1.0,89,0.00,,,0.00,0,weatherlink.com 1.10,2013-04-15 03:53:00,